• Join FlightAware (Why Join?)
  • Login
  • US Flag 
10:04PM EDT


 

Airport Tracker/Info


-or-


 

Live Flight TrackerFlight Track Log ✈ AAL1326 ✈ 19-Apr-2013 ✈ KORD - KFLL

Flight Track Log - Related Links

Times and Time Zones

All times are in EDT time to prevent confusion due to time zone crossing. See the AAL1326 flight status page for this flight to view local times or setup timezone preferences in your user account.

Time Position Orientation Groundspeed Altitude Reporting Facility
EDT Latitude Longitude Course Direction KTS MPH feet Rate Location/Type
07:50PM 41.9000 -87.9167 180° South 215 247 3,200  Level Chicago TRACON
07:52PM 41.6609 -87.7131 180° South  Level Estimated
07:52PM 41.8044 -87.8875 167° South 259 298 6,800  Level Chicago Center
07:53PM 41.5539 -87.6490 176° South  Level Estimated
07:53PM 41.7250 -87.8875 180° South 283 326 9,700  Level Chicago Center
07:54PM 41.4469 -87.5851 180° South  Level Estimated
07:54PM 41.6431 -87.8844 178° South 295 339 12,800  Level Chicago Center
07:55PM 41.3399 -87.5214 180° South  Level Estimated
07:55PM 41.5583 -87.8825 179° South 302 348 15,800  Level Chicago Center
07:56PM 41.2350 -87.4593 180° South  Level Estimated
07:56PM 41.4719 -87.8800 179° South 307 353 18,800  Level Chicago Center
07:57PM 41.3819 -87.8811 181° South 316 364 20,500 1,800 Climbing Chicago Center
07:58PM 41.2814 -87.8903 184° South 349 402 22,600 2,340 Climbing Chicago Center
07:59PM 41.1597 -87.8908 180° South 360 414 25,400 2,160 Climbing Chicago Center
08:00PM 41.0567 -87.8861 178° South 366 421 27,100 1,440 Climbing Chicago Center
08:01PM 40.9514 -87.8836 179° South 374 430 28,400 1,260 Climbing Chicago Center
08:02PM 40.8419 -87.8792 178° South 388 447 29,700 1,260 Climbing Chicago Center
08:03PM 40.7314 -87.8767 179° South 396 456 31,000 960 Climbing Chicago Center
08:04PM 40.6183 -87.8725 178° South 404 465 31,800 780 Climbing Chicago Center
08:05PM 40.5006 -87.8686 179° South 420 483 32,700 1,020 Climbing Chicago Center
08:06PM 40.3581 -87.8642 179° South 426 490 33,900 960 Climbing Chicago Center
08:07PM 40.2525 -87.8597 178° South 428 493 34,600 900 Climbing Indianapolis Center
08:08PM 40.1331 -87.8547 178° South 429 494 35,700 1,020 Climbing Indianapolis Center
08:09PM 40.0139 -87.8508 179° South 428 493 36,800 600 Climbing Indianapolis Center
08:10PM 39.8978 -87.8464 178° South 422 486 37,000 60 Climbing Indianapolis Center
08:11PM 39.7828 -87.8403 178° South 417 480 37,000  Level Indianapolis Center
08:12PM 39.6669 -87.8331 177° South 416 479 37,000  Level Indianapolis Center
08:13PM 39.5497 -87.8308 179° South 417 480 37,000  Level Indianapolis Center
08:14PM 39.4333 -87.8144 174° South 422 486 37,000  Level Indianapolis Center
08:15PM 39.3211 -87.7400 153° Southeast 446 513 37,000  Level Indianapolis Center
08:16PM 39.1878 -87.6547 154° Southeast 443 510 37,000  Level Indianapolis Center
08:17PM 39.0756 -87.5839 154° Southeast 446 513 37,000  Level Indianapolis Center
08:18PM 38.9636 -87.5153 155° Southeast 445 512 37,000  Level Indianapolis Center
08:19PM 38.8519 -87.4447 154° Southeast 445 512 37,000  Level Indianapolis Center
08:20PM 38.7394 -87.3750 154° Southeast 446 513 37,000  Level Indianapolis Center
08:21PM 38.6278 -87.3056 154° Southeast 444 511 37,000  Level Indianapolis Center
08:22PM 38.5161 -87.2367 154° Southeast 443 510 37,000  Level Indianapolis Center
08:23PM 38.4078 -87.1706 154° Southeast 435 501 37,000  Level Indianapolis Center
08:24PM 38.2961 -87.1031 155° Southeast 434 499 37,000  Level Indianapolis Center
08:25PM 38.1672 -87.0289 156° South 432 497 37,000  Level Indianapolis Center
08:26PM 38.0656 -86.9617 152° Southeast 438 504 37,000  Level Indianapolis Center
08:27PM 37.9533 -86.8944 155° Southeast 443 510 37,000  Level Indianapolis Center
08:28PM 37.8431 -86.8269 154° Southeast 440 506 37,000  Level Indianapolis Center
08:29PM 37.7317 -86.7606 155° Southeast 440 506 37,000  Level Indianapolis Center
08:30PM 37.6203 -86.6931 154° Southeast 441 507 37,000  Level Indianapolis Center
08:31PM 37.4958 -86.6208 155° Southeast 441 507 37,000  Level Indianapolis Center
08:33PM 37.3839 -86.5525 154° Southeast 441 507 37,000  Level Indianapolis Center
08:34PM 37.2728 -86.4856 154° Southeast 438 504 37,000  Level Indianapolis Center
08:35PM 37.1642 -86.4228 155° Southeast 426 490 37,000  Level Indianapolis Center
08:36PM 37.0572 -86.3586 154° Southeast 421 484 37,000  Level Indianapolis Center
08:37PM 36.9494 -86.2967 155° Southeast 420 483 37,000  Level Indianapolis Center
08:38PM 36.8403 -86.2325 155° Southeast 425 489 37,000  Level Memphis Center
08:39PM 36.7361 -86.1706 155° Southeast 420 483 37,000  Level Memphis Center
08:40PM 36.6319 -86.1086 154° Southeast 420 483 37,000  Level Memphis Center
08:41PM 36.5169 -86.0425 155° Southeast 420 483 37,000  Level Memphis Center
08:42PM 36.4128 -85.9836 156° South 415 478 37,000  Level Memphis Center
08:43PM 36.3106 -85.9219 154° Southeast 410 472 37,000  Level Memphis Center
08:44PM 36.2042 -85.8611 155° Southeast 410 472 37,000  Level Memphis Center
08:45PM 36.0978 -85.8028 156° South 410 472 37,000  Level Memphis Center
08:46PM 35.9936 -85.7442 156° South 410 472 37,000  Level Memphis Center
08:48PM 35.7894 -85.6311 156° South 428 493 37,000  Level Atlanta Center
08:49PM 35.6900 -85.5703 154° Southeast 421 484 37,000  Level Atlanta Center
08:50PM 35.5883 -85.5147 156° South 410 472 37,000  Level Atlanta Center
08:51PM 35.4847 -85.4569 156° South 405 466 37,000  Level Atlanta Center
08:52PM 35.3853 -85.4017 156° South 400 460 37,000  Level Atlanta Center
08:53PM 35.2836 -85.3439 155° Southeast 400 460 37,000  Level Atlanta Center
08:54PM 35.1819 -85.2889 156° South 400 460 37,000  Level Atlanta Center
08:55PM 35.0803 -85.2292 154° Southeast 400 460 37,000  Level Atlanta Center
08:56PM 34.9994 -85.1850 156° South 400 460 37,000  Level Atlanta Center
08:57PM 34.8747 -85.1172 156° South 400 460 37,000  Level Atlanta Center
08:58PM 34.7772 -85.0656 156° South 400 460 37,000  Level Atlanta Center
08:59PM 34.6775 -85.0086 155° Southeast 400 460 37,000  Level Atlanta Center
09:00PM 34.5819 -84.9522 154° Southeast 389 448 37,000  Level Atlanta Center
09:01PM 34.4925 -84.9058 157° South 389 448 37,000  Level Atlanta Center
09:02PM 34.3928 -84.8494 155° Southeast 389 448 37,000  Level Atlanta Center
09:03PM 34.2928 -84.7956 156° South 395 455 37,000  Level Atlanta Center
09:04PM 34.1950 -84.7419 156° South 395 455 37,000  Level Atlanta Center
09:05PM 34.0806 -84.6808 156° South 401 461 37,000  Level Atlanta Center
09:06PM 33.9786 -84.6275 157° South 401 461 37,000  Level Atlanta Center
09:07PM 33.8767 -84.5767 158° South 401 461 37,000  Level Atlanta Center
09:08PM 33.7767 -84.5186 154° Southeast 396 456 37,000  Level Atlanta Center
09:09PM 33.6744 -84.4631 156° South 396 456 37,000  Level Atlanta Center
09:10PM 33.5808 -84.4178 158° South 401 461 37,000  Level Atlanta Center
09:11PM 33.4767 -84.3725 160° South 401 461 37,000  Level Atlanta Center
09:12PM 33.3722 -84.3297 161° South 401 461 37,000  Level Atlanta Center
09:13PM 33.2639 -84.2872 162° South 401 461 37,000  Level Atlanta Center
09:14PM 33.1594 -84.2397 159° South 406 467 37,000  Level Atlanta Center
09:15PM 33.0553 -84.1950 160° South 398 458 37,000  Level Atlanta Center
09:16PM 32.9489 -84.1528 162° South 398 458 37,000  Level Atlanta Center
09:17PM 32.8403 -84.1106 162° South 404 465 37,000  Level Atlanta Center
09:18PM 32.7297 -84.0636 160° South 409 471 37,000  Level Atlanta Center
09:19PM 32.6192 -84.0192 161° South 414 476 37,000 300 Level Atlanta Center
09:20PM 32.5083 -83.9722 160° South 420 483 37,600 600 Climbing Atlanta Center
09:21PM 32.3936 -83.9258 161° South 425 489 38,300 600 Climbing Atlanta Center
09:22PM 32.2808 -83.8817 162° South 425 489 38,900 300 Climbing Atlanta Center
09:23PM 32.1703 -83.8353 160° South 425 489 39,000 60 Climbing Atlanta Center
09:23PM 32.0861 -83.8000 160° South 424 488 39,000  Level Jacksonville Center
09:24PM 31.9797 -83.7572 161° South 442 509 39,000 -60 Level Jacksonville Center
09:25PM 31.8528 -83.7047 161° South 442 509 38,900 -60 Descending Jacksonville Center
09:26PM 31.7383 -83.6522 159° South 450 518 38,900  Level Jacksonville Center
09:27PM 31.6258 -83.6147 164° South 449 517 39,000  Climbing Jacksonville Center
09:28PM 31.4944 -83.5625 161° South 460 529 39,000  Level Jacksonville Center
09:29PM 31.3758 -83.5156 161° South 455 524 39,000  Level Jacksonville Center
09:30PM 31.2592 -83.4686 161° South 455 524 39,000  Level Jacksonville Center
09:31PM 31.1381 -83.4217 162° South 455 524 39,000  Level Jacksonville Center
09:32PM 31.0214 -83.3750 161° South 455 524 39,000  Level Jacksonville Center
09:33PM 30.9025 -83.3283 161° South 449 517 39,000  Level Jacksonville Center
09:34PM 30.7900 -83.2794 160° South 442 509 39,000 -60 Level Jacksonville Center
09:35PM 30.6733 -83.2233 158° South 442 509 38,900  Descending Jacksonville Center
09:36PM 30.5564 -83.1653 157° South 449 517 39,000  Climbing Jacksonville Center
09:37PM 30.4375 -83.1069 157° South 455 524 39,000 -60 Level Jacksonville Center
09:38PM 30.3228 -83.0489 156° South 455 524 38,900  Descending Jacksonville Center
09:39PM 30.2017 -82.9886 157° South 455 524 39,000  Climbing Jacksonville Center
09:40PM 30.0806 -82.9286 157° South 460 529 39,000  Level Jacksonville Center
09:41PM 29.9681 -82.8781 159° South 472 543 39,000  Level Jacksonville Center
09:42PM 29.8489 -82.8158 156° South 472 543 39,000  Level Jacksonville Center
09:43PM 29.7278 -82.7586 158° South 472 543 39,000  Level Jacksonville Center
09:44PM 29.6003 -82.6967 157° South 477 549 39,000 -60 Level Jacksonville Center
09:45PM 29.4792 -82.6325 155° Southeast 477 549 38,900  Descending Jacksonville Center
09:46PM 29.3581 -82.5733 157° South 477 549 39,000  Climbing Jacksonville Center
09:47PM 29.2347 -82.5142 157° South 477 549 39,000  Level Jacksonville Center
09:48PM 29.1133 -82.4553 157° South 477 549 39,000  Level Jacksonville Center
09:49PM 28.9881 -82.4511 178° South 457 526 39,000  Level Jacksonville Center
09:50PM 28.8650 -82.4586 183° South 441 507 39,000  Level Jacksonville Center
09:51PM 28.7397 -82.4686 184° South 449 517 39,000  Level Jacksonville Center
09:52PM 28.6208 -82.4764 183° South 449 517 39,000  Level Jacksonville Center
09:54PM 28.3947 -82.4889 183° South 445 512 39,000  Level Miami Center
09:55PM 28.2881 -82.4953 183° South 445 512 39,000 -60 Level Miami Center
09:56PM 28.1647 -82.4986 181° South 445 512 38,900  Descending Miami Center
09:57PM 28.0456 -82.5092 184° South 439 505 39,000  Climbing Miami Center
09:58PM 27.9289 -82.5011 177° South 439 505 39,000  Level Miami Center
09:59PM 27.7911 -82.4519 162° South 444 511 39,000  Level Miami Center
10:00PM 27.6719 -82.4086 162° South 452 520 39,000  Level Miami Center
10:01PM 27.5586 -82.3656 161° South 457 526 39,000  Level Miami Center
10:02PM 27.4372 -82.3200 162° South 457 526 39,000 -480 Level Miami Center
10:03PM 27.3014 -82.2717 162° South 457 526 38,100 -1,740 Descending Miami Center
10:04PM 27.1822 -82.2217 160° South 457 526 35,600 -3,060 Descending Miami Center
10:05PM 27.0753 -82.1258 141° Southeast 482 555 31,900 -3,240 Descending Miami Center
10:06PM 26.9825 -82.0308 138° Southeast 503 579 29,000 -2,580 Descending Miami Center
10:07PM 26.8778 -81.9283 139° Southeast 508 585 26,800 -2,160 Descending Miami Center
10:08PM 26.7875 -81.8197 133° Southeast 494 568 24,800 -1,980 Descending Miami Center
10:09PM 26.7033 -81.7186 133° Southeast 464 534 22,900 -2,040 Descending Miami Center
10:10PM 26.6272 -81.6156 130° Southeast 431 496 20,800 -2,100 Descending Miami Center
10:11PM 26.5511 -81.5219 132° Southeast 414 476 18,800 -2,040 Descending Miami Center
10:12PM 26.4808 -81.4311 131° Southeast 403 464 16,800 -2,040 Descending Miami Center
10:13PM 26.4083 -81.3469 134° Southeast 390 449 14,800 -1,980 Descending Miami Center
10:14PM 26.3419 -81.2633 132° Southeast 371 427 13,000 -1,740 Descending Miami Center
10:15PM 26.2794 -81.1847 132° Southeast 355 409 11,300 -1,440 Descending Miami Center
10:16PM 26.2211 -81.1108 131° Southeast 335 386 10,200 -1,020 Descending Miami Center
10:16PM 26.1886 -81.0819 141° Southeast 292 336 10,000 -840 Descending Miami Center
10:17PM 26.1667 -81.0442 123° Southeast 309 356 9,400 -1,080 Descending Miami Center
10:17PM 26.1383 -81.0153 138° Southeast 274 315 8,900 -1,500 Descending Miami Center
10:18PM 26.1161 -80.9822 127° Southeast 284 327 8,000 -1,140 Descending Miami Center
10:18PM 26.1003 -80.9517 120° Southeast 271 312 7,900 -600 Descending Miami Center
10:19PM 26.1017 -80.9053 88° East 256 295 7,400 -840 Descending Miami Center
10:19PM 26.0986 -80.8683 95° East 246 283 7,000 -1,020 Descending Miami Center
10:20PM 26.0975 -80.8289 92° East 244 281 6,400 -1,080 Descending Miami Center
10:20PM 26.0944 -80.7917 95° East 237 273 5,900 -1,020 Descending Miami Center
10:21PM 26.0953 -80.7594 88° East 239 275 5,400 -900 Descending Miami Center
10:21PM 26.0900 -80.7200 98° East 231 266 5,000 -420 Descending Miami Center
10:22PM 26.0928 -80.6878 85° East 234 269 5,000  Level Miami Center
10:23PM 26.0856 -80.6436 100° East 225 259 5,000 -120 Level Miami Center
10:23PM 26.0883 -80.6181 83° East 234 269 4,900  Descending Miami Center
10:24PM 26.0833 -80.5739 97° East 223 257 5,000  Climbing Miami Center
10:24PM 26.0861 -80.5486 83° East 234 269 4,900  Descending Miami Center
10:25PM 26.0808 -80.5069 98° East 221 254 5,000 -120 Climbing Miami Center
10:25PM 26.0836 -80.4769 84° East 229 264 4,800 -540 Descending Miami Center
10:26PM 26.0761 -80.4372 102° East 217 250 4,500 -900 Descending Miami Center
10:27PM 26.0758 -80.3703 90° East 212 244 3,400 -1,080 Descending Miami Center
10:28PM 26.0772 -80.3056 89° East 172 198 2,300 -960 Descending Miami Center
10:29PM 26.0742 -80.2569 94° East 164 189 1,500 -840 Descending Miami Center
10:30PM 26.0753 -80.2106 88° East 148 170 700 -780 Descending Miami Center